Hoppa till innehåll

METAR väder och rapporter - ESGG

Nedan listas information från vald flygplats. Andra METARs finns längre ned på sidan. Kontakta oss om någon saknas eller skriv in egen ICAO-kod.

Andra intressanta METARs

Klicka på önskad rubrik nedan för att visa nuvarande väder för den platsen.

Avstånd från stationen: NO 27kmESGG - Göteborg (Landvetter)
Uppdaterad: 2020-10-28 07:50
 Vind från S
Vind: S 28 km/h
Temperatur: 8°C
Vindavkylning: 4°C
Daggpunkt: 7°C
Luftfuktighet: 93%
Barometer: 997 hPa
Summering: Lätt regn
Moln: Genommulet
Sikt: 4 km
Molninformation: Övervägande molnigt 152 m
Genommulet 335 m
2020/10/28 06:50 ESGG 280650Z 18015KT 4400 -RA BKN005 OVC011 08/07 Q0997
Lätt regn, Genommulet
Lätt regn
Genommulet
  Visa detaljer för Göteborg (Landvetter)
Avstånd från stationen: N 28kmESGP - Göteborg (Säve)
Uppdaterad: 2020-10-28 08:40
 
unable to load ESGP data RC=404 Not Found
unable to load ESGP data RC=404 Not Found
  Visa detaljer för Göteborg (Säve)
Avstånd från stationen: NO 419kmESSA - Stockholm (Arlanda)
Uppdaterad: 2020-10-28 07:50
 Vind från S
Vind: S 15 km/h
Temperatur: 6°C
Vindavkylning: 3°C
Daggpunkt: 5°C
Luftfuktighet: 93%
Barometer: 1001 hPa
Summering: Klart
Sikt: mer än 10 km
2020/10/28 06:50 ESSA 280650Z 17008KT CAVOK 06/05 Q1001 NOSIG
Klart
Klart
  Visa detaljer för Stockholm (Arlanda)
Avstånd från stationen: ONO 404kmESSB - Stockholm (Bromma)
Uppdaterad: 2020-10-28 07:50
 Vind från SO
Vind: SO 11 km/h
Temperatur: 7°C
Vindavkylning: 5°C
Daggpunkt: 6°C
Luftfuktighet: 93%
Barometer: 1002 hPa
Summering: Klart
Sikt: mer än 10 km
2020/10/28 06:50 ESSB 280650Z 14006KT CAVOK 07/06 Q1002
Klart
Klart
  Visa detaljer för Stockholm (Bromma)
Avstånd från stationen: ONO 323kmESKN - Stockholm (Skavsta)
Uppdaterad: 2020-10-28 07:50
 Vind från S
Vind: S 15 km/h
Temperatur: 8°C
Vindavkylning: 5°C
Daggpunkt: 7°C
Luftfuktighet: 93%
Barometer: 1002 hPa
Moln: Delvis molnigt
Sikt: 10 km
Molninformation: Delvis molnigt 1463 m
2020/10/28 06:50 ESKN 280650Z 19008KT 9999 SCT048 08/07 Q1002
Delvis molnigt
Delvis molnigt
  Visa detaljer för Stockholm (Skavsta)
Avstånd från stationen: SSO 238kmESMS - Malmö flygplats (Sturup)
Uppdaterad: 2020-10-28 07:50
 Vind från SSV
Vind: SSV 31 km/h
Temperatur: 9°C
Vindavkylning: 5°C
Daggpunkt: 9°C
Luftfuktighet: 100%
Barometer: 1002 hPa
Summering: Lätt regn, Duggregn
Moln: Genommulet
Sikt: 5 km
Molninformation: Övervägande molnigt 152 m
Övervägande molnigt 305 m
Genommulet 396 m
2020/10/28 06:50 ESMS 280650Z 21017KT 5000 -RADZ BKN005 BKN010 OVC013 09/09 Q1002
Lätt regn, Duggregn, Genommulet
Lätt regn
Duggregn
Genommulet
  Visa detaljer för Malmö flygplats (Sturup)
Avstånd från stationen: O 382kmESSV - Visby flygplats
Uppdaterad: 2020-10-28 07:50
 Vind från SSO
Vind: SSO 19 km/h
Temperatur: 8°C
Vindavkylning: 4°C
Daggpunkt: 7°C
Luftfuktighet: 93%
Barometer: 1005 hPa
Moln: Några få moln
Sikt: 10 km
Molninformation: Några få moln 671 m
2020/10/28 06:50 ESSV 280650Z 16010KT 9999 FEW022 08/07 Q1005
Några få moln
Några få moln
  Visa detaljer för Visby flygplats
Avstånd från stationen: NNO 92kmESGT - Trollhättan
Uppdaterad: 2020-10-27 23:20
Ej aktuell
 
2020/10/27 22:20

  Visa detaljer för Trollhättan
Avstånd från stationen: ONO 129kmESGJ - Jönköpings flygplats
Uppdaterad: 2020-10-28 07:50
 Vind från SSO
Vind: SSO 20 km/h
Temperatur: 8°C
Vindavkylning: 4°C
Daggpunkt: 7°C
Luftfuktighet: 93%
Barometer: 998 hPa
Summering: Lätt duggregn
Moln: Övervägande molnigt
Sikt: 8 km
Molninformation: Övervägande molnigt 274 m
2020/10/28 06:50 ESGJ 280650Z 16011KT 8000 -DZ BKN009 08/07 Q0998
Lätt duggregn, Övervägande molnigt
Lätt duggregn
Övervägande molnigt
  Visa detaljer för Jönköpings flygplats
Avstånd från stationen: NNO 229kmESOK - Karlstad
Uppdaterad: 2020-10-28 07:50
 Vind från SSO
Vind: SSO 22 km/h
Temperatur: 8°C
Vindavkylning: 4°C
Daggpunkt: 8°C
Luftfuktighet: 100%
Barometer: 996 hPa
Moln: Övervägande molnigt
Sikt: 7 km
Molninformation: Några få moln 335 m
Delvis molnigt 457 m
Övervägande molnigt 579 m
2020/10/28 06:50 ESOK 280650Z 16012KT 7000 FEW011 SCT015 BKN019 08/08 Q0996 REDZ
Övervägande molnigt
Övervägande molnigt
  Visa detaljer för Karlstad
Avstånd från stationen: N 643kmESNZ - Östersund (Frösön)
Uppdaterad: 2020-10-28 07:50
 Vind från S
Vind: S 17 km/h
Temperatur: 5°C
Vindavkylning: 2°C
Daggpunkt: 3°C
Luftfuktighet: 87%
Barometer: 991 hPa
Summering: Klart
Sikt: mer än 10 km
2020/10/28 06:50 ESNZ 280650Z 18009KT CAVOK 05/03 Q0991
Klart
Klart
  Visa detaljer för Östersund (Frösön)
Avstånd från stationen: SSO 216kmEKCH - Köpenhamn (Kastrup)
Uppdaterad: 2020-10-28 07:50
 Vind från SSV
Vind: SSV 30 km/h
Temperatur: 10°C
Vindavkylning: 7°C
Daggpunkt: 9°C
Luftfuktighet: 94%
Barometer: 1001 hPa
Summering: Lätt regn
Moln: Övervägande molnigt
Sikt: 10 km
Molninformation: Några få moln 213 m
Övervägande molnigt 335 m
2020/10/28 06:50 EKCH 280650Z 21016KT 9999 -RA FEW007 BKN011 10/09 Q1001 BECMG SCT015
Lätt regn, Övervägande molnigt
Lätt regn
Övervägande molnigt
  Visa detaljer för Köpenhamn (Kastrup)
Avstånd från stationen: SV 263kmEKBI - Billund Airport
Uppdaterad: 2020-10-28 06:50
Ej aktuell
 Vind från SSV
Vind: SSV 9 km/h
Temperatur: 9°C
Vindavkylning: 7°C
Daggpunkt: 8°C
Luftfuktighet: 94%
Barometer: 997 hPa
Moln: Klart
Sikt: 10 km
2020/10/28 05:50 EKBI 280550Z AUTO 20005KT 9999 NCD 09/08 Q0997
Klart
Klart
  Visa detaljer för Billund Airport
Avstånd från stationen: N 302kmENGM - Oslo (Gardermoen)
Uppdaterad: 2020-10-28 07:50
 Vind från OSO
Vind: OSO 19 km/h
Temperatur: 7°C
Vindavkylning: 4°C
Daggpunkt: 6°C
Luftfuktighet: 93%
Barometer: 993 hPa
Summering: Lätt regn
Moln: Övervägande molnigt
Sikt: 9 km
Molninformation: Några få moln 122 m
Övervägande molnigt 152 m
2020/10/28 06:50 ENGM 280650Z 12010KT 9000 4000N -RA FEW004 BKN005 07/06 Q0993 TEMPO 4000 RA BR BKN004
Lätt regn, Övervägande molnigt
Lätt regn
Övervägande molnigt
  Visa detaljer för Oslo (Gardermoen)
Avstånd från stationen: NO 540kmEFMA - Mariehamn / Åland
Uppdaterad: 2020-10-28 07:50
 Vind från SSV
Vind: SSV 24 km/h
Temperatur: 9°C
Vindavkylning: 6°C
Daggpunkt: 7°C
Luftfuktighet: 87%
Barometer: 1003 hPa
Summering: Klart
Sikt: mer än 10 km
2020/10/28 06:50 EFMA 280650Z AUTO 21013KT CAVOK 09/07 Q1003
Klart
Klart
  Visa detaljer för Mariehamn / Åland
Avstånd från stationen: S 558kmEDDT - Berlin (Tegel), Germany
Uppdaterad: 2020-10-28 08:20
 Vind från SSV
Vind: SSV 17 km/h
Temperatur: 10°C
Vindavkylning: 8°C
Daggpunkt: 7°C
Luftfuktighet: 82%
Barometer: 1008 hPa
Summering: Lätt regn
Moln: Övervägande molnigt
Sikt: 10 km
Molninformation: Några få moln 1067 m
Övervägande molnigt 1280 m
2020/10/28 07:20 EDDT 280720Z 20009KT 9999 -RA FEW035 BKN042 10/07 Q1008 NOSIG
Lätt regn, Övervägande molnigt
Lätt regn
Övervägande molnigt
  Visa detaljer för Berlin (Tegel), Germany
Avstånd från stationen: SV 737kmEHAM - Amsterdam (Schiphol)
Uppdaterad: 2020-10-28 07:55
 Vind från SSV
Vind: SSV 24 km/h
Temperatur: 10°C
Vindavkylning: 7°C
Daggpunkt: 7°C
Luftfuktighet: 82%
Barometer: 1003 hPa
Moln: Några få moln
Sikt: 10 km
Molninformation: Några få moln 1158 m
2020/10/28 06:55 EHAM 280655Z 20013KT 160V230 9999 FEW038 10/07 Q1003 NOSIG
Några få moln
Några få moln
  Visa detaljer för Amsterdam (Schiphol)
Avstånd från stationen: ONO 808kmEFHK - Helsingfors (Vantaa)
Uppdaterad: 2020-10-28 07:50
 Vind från SSV
Vind: SSV 19 km/h
Temperatur: 9°C
Vindavkylning: 6°C
Daggpunkt: 8°C
Luftfuktighet: 94%
Barometer: 1005 hPa
Moln: Övervägande molnigt
Sikt: 10 km
Molninformation: Övervägande molnigt 396 m
Några få moln 610 m
Övervägande molnigt 914 m
2020/10/28 06:50 EFHK 280650Z 21010KT 9999 BKN013 FEW020TCU BKN030 09/08 Q1005 TEMPO SCT012 BKN025
Övervägande molnigt
Övervägande molnigt
  Visa detaljer för Helsingfors (Vantaa)
Avstånd från stationen: SSV 537kmEDDW - Bremen
Uppdaterad: 2020-10-28 08:20
 Vind från SSV
Vind: SSV 15 km/h
Temperatur: 10°C
Vindavkylning: 8°C
Daggpunkt: 9°C
Luftfuktighet: 94%
Barometer: 1005 hPa
Moln: Några få moln
Sikt: 10 km
Molninformation: Några få moln 823 m
2020/10/28 07:20 EDDW 280720Z 20008KT 9999 FEW027 10/09 Q1005 NOSIG
Några få moln
Några få moln
  Visa detaljer för Bremen
Avstånd från stationen: SSV 861kmEDDF - Frankfurt am Main
Uppdaterad: 2020-10-28 08:20
 Vind från S
Vind: S 11 km/h
Temperatur: 10°C
Vindavkylning: 8°C
Daggpunkt: 9°C
Luftfuktighet: 94%
Barometer: 1010 hPa
Summering: Lätt regn, Duggregn
Moln: Övervägande molnigt
Sikt: 10 km
Molninformation: Några få moln 122 m
Övervägande molnigt 183 m
Övervägande molnigt 488 m
2020/10/28 07:20 EDDF 280720Z 18006KT 9999 -RADZ FEW004 BKN006 BKN016 10/09 Q1010 TEMPO BKN012
Lätt regn, Duggregn, Övervägande molnigt
Lätt regn
Duggregn
Övervägande molnigt
  Visa detaljer för Frankfurt am Main
Avstånd från stationen: SV 880kmEBBR - Bryssel international
Uppdaterad: 2020-10-28 08:20
 Vind från SV
Vind: SV 19 km/h
Temperatur: 10°C
Vindavkylning: 7°C
Daggpunkt: 8°C
Luftfuktighet: 88%
Barometer: 1007 hPa
Moln: Några få moln
Sikt: 10 km
Molninformation: Några få moln 427 m
2020/10/28 07:20 EBBR 280720Z 22010KT 9999 FEW014 10/08 Q1007 NOSIG
Några få moln
Några få moln
  Visa detaljer för Bryssel international
Avstånd från stationen: SV 738kmEHAM - Amsterdam (Schiphol)
Uppdaterad: 2020-10-28 07:55
 Vind från SSV
Vind: SSV 24 km/h
Temperatur: 10°C
Vindavkylning: 7°C
Daggpunkt: 7°C
Luftfuktighet: 82%
Barometer: 1003 hPa
Moln: Några få moln
Sikt: 10 km
Molninformation: Några få moln 1158 m
2020/10/28 06:55 EHAM 280655Z 20013KT 160V230 9999 FEW038 10/07 Q1003 NOSIG
Några få moln
Några få moln
  Visa detaljer för Amsterdam (Schiphol)
Avstånd från stationen: SV 1044kmEGLL - London (Heathrow)
Uppdaterad: 2020-10-28 07:50
 Vind från SSV
Vind: SSV 17 km/h
Temperatur: 9°C
Vindavkylning: 7°C
Daggpunkt: 6°C
Luftfuktighet: 82%
Barometer: 1001 hPa
Moln: Några få moln
Sikt: 10 km
Molninformation: Några få moln 1463 m
2020/10/28 06:50 EGLL 280650Z AUTO 21009KT 9999 FEW048 09/06 Q1001 NOSIG
Några få moln
Några få moln
  Visa detaljer för London (Heathrow)
Avstånd från stationen: SV 1132kmLFPG - Paris (Charles de Gaulle)
Uppdaterad: 2020-10-28 08:00
 Vind från SV
Vind: SV 20 km/h
Temperatur: 10°C
Vindavkylning: 7°C
Daggpunkt: 8°C
Luftfuktighet: 88%
Barometer: 1010 hPa
Moln: Övervägande molnigt
Sikt: 10 km
Molninformation: Några få moln 549 m
Övervägande molnigt 7315 m
2020/10/28 07:00 LFPG 280700Z 22011KT 9999 FEW018 BKN240 10/08 Q1010 NOSIG
Övervägande molnigt
Övervägande molnigt
  Visa detaljer för Paris (Charles de Gaulle)
Avstånd från stationen: SSV 1142kmLSZH - Zürich Airport
Uppdaterad: 2020-10-28 07:50
 Vind från S
Vind: S 17 km/h
Temperatur: 8°C
Vindavkylning: 5°C
Daggpunkt: 6°C
Luftfuktighet: 87%
Barometer: 1015 hPa
Summering: Skurar i närheten
Moln: Övervägande molnigt
Sikt: 10 km
Molninformation: Några få moln 914 m
Delvis molnigt 1219 m
Övervägande molnigt 1829 m
2020/10/28 06:50 LSZH 280650Z 18009KT 9999 VCSH FEW030 SCT040 BKN060 08/06 Q1015 NOSIG
Nearby showers, Övervägande molnigt
Nearby showers
Övervägande molnigt
  Visa detaljer för Zürich Airport
Avstånd från stationen: S 1749kmLIRF - Rome Airport (Fiumicino - Leonardo da Vinci)
Uppdaterad: 2020-10-28 07:50
 Vind från varierande
Vind: varierande 4 km/h
Temperatur: 9°C
Daggpunkt: 8°C
Luftfuktighet: 94%
Barometer: 1016 hPa
Summering: Klart
Sikt: mer än 10 km
2020/10/28 06:50 LIRF 280650Z VRB02KT CAVOK 09/08 Q1016 NOSIG
Klart
Klart
  Visa detaljer för Rome Airport (Fiumicino - Leonardo da Vinci)
Avstånd från stationen: SO 2679kmLTAI - Antalya
Uppdaterad: 2020-10-28 07:50
 Vind från ONO
Vind: ONO 9 km/h
Temperatur: 25°C
Daggpunkt: 17°C
Luftfuktighet: 61%
Barometer: 1015 hPa
Moln: Delvis molnigt
Sikt: 10 km
Molninformation: Några få moln 610 m
Delvis molnigt 914 m
2020/10/28 06:50 LTAI 280650Z 06005KT 350V140 9999 FEW020CB SCT030 25/17 Q1015 NOSIG
Delvis molnigt
Delvis molnigt
  Visa detaljer för Antalya
Avstånd från stationen: VSV 6074kmKJFK - New Your (JFK)
Uppdaterad: 2020-10-28 07:51
 Vind från ONO
Vind: ONO 9 km/h
Temperatur: 12°C
Daggpunkt: 8°C
Luftfuktighet: 77%
Barometer: 1020 hPa
Moln: Genommulet
Sikt: 16 km
Molninformation: Genommulet 1280 m
2020/10/28 06:51 KJFK 280651Z 06005KT 10SM OVC042 12/08 A3012 RMK AO2 RAE34 SLP199 T01220083 PNO $
Genommulet
Genommulet
  Visa detaljer för New Your (JFK)
Avstånd från stationen: VSV 8848kmKLAX - Los Angeles International Airport
Uppdaterad: 2020-10-28 07:53
 Vind från O
Vind: O 11 km/h
Temperatur: 17°C
Daggpunkt: 9°C
Luftfuktighet: 59%
Barometer: 1017.9 hPa
Moln: Några få moln
Sikt: 16 km
Molninformation: Några få moln 1372 m
2020/10/28 06:53 KLAX 280653Z 09006KT 10SM FEW045 17/09 A3006 RMK AO2 SLP176 FU FEW045 T01670094 $
Några få moln
Några få moln
  Visa detaljer för Los Angeles International Airport
Avstånd från stationen: SO 4968kmOMDB - Dubai International Airport
Uppdaterad: 2020-10-28 07:00
Ej aktuell
 Vind från NO
Vind: NO 6 km/h
Temperatur: 29°C
Värmeindex: 29°C
Daggpunkt: 16°C
Luftfuktighet: 45%
Barometer: 1015 hPa
Summering: Klart
Sikt: mer än 10 km
2020/10/28 06:00 OMDB 280600Z 05003KT 340V120 CAVOK 29/16 Q1015 NOSIG
Klart
Klart
  Visa detaljer för Dubai International Airport
Avstånd från stationen: OSO 8570kmRJTT - Tokyo International Airport
Uppdaterad: 2020-10-28 07:30
 Vind från S
Vind: S 7 km/h
Temperatur: 19°C
Daggpunkt: 13°C
Luftfuktighet: 68%
Barometer: 1018 hPa
Moln: Övervägande molnigt
Sikt: 10 km
Molninformation: Några få moln 914 m
Övervägande molnigt 4877 m
2020/10/28 06:30 RJTT 280630Z 17004KT 140V210 9999 FEW030 BKN160 19/13 Q1018 NOSIG RMK 1CU030 7AC160 A3008
Övervägande molnigt
Övervägande molnigt
  Visa detaljer för Tokyo International Airport
Avstånd från stationen: OSO 7125kmZBAA - Peking (Beijing Capital)
Uppdaterad: 2020-10-28 08:00
 Vind från NV
Vind: NV 7 km/h
Temperatur: 21°C
Daggpunkt: -13°C
Luftfuktighet: 9%
Barometer: 1026 hPa
Summering: Klart
Sikt: mer än 10 km
2020/10/28 07:00 ZBAA 280700Z 31002MPS 230V020 CAVOK 21/M13 Q1026 NOSIG
Klart
Klart
  Visa detaljer för Peking (Beijing Capital)
VÄDER KURIOSA -  Weather TermsHeat Advisory - Maximum heat index of 105 to 110°F with a minimum of 75°F for two or more consecutive days.